createdAt,value
2022-12-23T00:00:41.502Z,24.37
2022-12-23T00:03:23.886Z,24.67
2022-12-23T00:05:51.590Z,24.33
2022-12-23T00:08:19.213Z,23.93
2022-12-23T00:10:48.098Z,25.00
2022-12-23T00:13:33.884Z,26.47
2022-12-23T00:16:11.346Z,29.80
2022-12-23T00:18:39.168Z,29.93
2022-12-23T00:21:09.467Z,27.67
2022-12-23T00:23:39.061Z,26.03
2022-12-23T00:26:06.279Z,25.80
2022-12-23T00:28:33.787Z,27.03
2022-12-23T00:31:03.392Z,27.47
2022-12-23T00:33:33.138Z,26.87
2022-12-23T00:36:00.739Z,25.40
2022-12-23T00:38:51.281Z,26.93
2022-12-23T00:41:42.091Z,26.93
2022-12-23T00:44:09.491Z,25.53
2022-12-23T00:46:36.394Z,25.73
2022-12-23T00:49:22.729Z,24.80
2022-12-23T00:51:50.085Z,26.67
2022-12-23T00:54:18.103Z,40.33
2022-12-23T00:56:45.181Z,28.57
2022-12-23T00:59:12.444Z,27.40
2022-12-23T01:01:58.002Z,28.70
2022-12-23T01:04:44.359Z,27.43
2022-12-23T01:07:11.342Z,26.93
2022-12-23T01:09:38.612Z,29.10
2022-12-23T01:12:05.914Z,27.30
2022-12-23T01:14:33.398Z,34.53
2022-12-23T01:17:00.468Z,29.80
2022-12-23T01:19:28.637Z,31.90
2022-12-23T01:21:55.641Z,28.87
2022-12-23T01:24:22.953Z,30.40
2022-12-23T01:26:49.883Z,31.33
2022-12-23T01:29:17.124Z,29.83
2022-12-23T01:31:44.146Z,29.90
2022-12-23T01:34:11.443Z,33.40
2022-12-23T01:36:38.441Z,51.00
2022-12-23T01:39:05.682Z,32.40
2022-12-23T01:41:52.610Z,32.47
2022-12-23T01:44:57.962Z,30.37
2022-12-23T01:47:29.727Z,30.87
2022-12-23T01:50:05.019Z,29.30
2022-12-23T01:52:36.348Z,30.13
2022-12-23T01:55:03.862Z,29.43
2022-12-23T01:57:30.951Z,40.03
2022-12-23T02:00:16.685Z,28.87
2022-12-23T02:03:04.356Z,29.07
2022-12-23T02:05:32.049Z,31.73
2022-12-23T02:08:17.343Z,31.23
2022-12-23T02:11:06.574Z,30.27
2022-12-23T02:13:36.536Z,30.57
2022-12-23T02:16:17.141Z,28.50
2022-12-23T02:19:10.462Z,28.20
2022-12-23T02:21:37.706Z,28.97
2022-12-23T02:24:22.782Z,28.50
2022-12-23T02:26:55.696Z,33.43
2022-12-23T02:29:28.807Z,28.10
2022-12-23T02:32:08.170Z,29.13
2022-12-23T02:34:55.828Z,28.47
2022-12-23T02:37:26.029Z,33.17
2022-12-23T02:39:58.036Z,28.73
2022-12-23T02:42:35.933Z,28.10
2022-12-23T02:45:17.082Z,28.17
2022-12-23T02:48:30.980Z,27.00
2022-12-23T02:50:59.628Z,27.67
2022-12-23T02:53:34.160Z,30.30
2022-12-23T02:56:02.425Z,30.00
2022-12-23T02:58:34.540Z,29.13
2022-12-23T03:01:03.340Z,30.13
2022-12-23T03:03:31.403Z,37.20
2022-12-23T03:05:58.392Z,33.93
2022-12-23T03:08:30.234Z,31.17
2022-12-23T03:11:08.253Z,31.50
2022-12-23T03:13:35.443Z,31.40
2022-12-23T03:16:24.357Z,30.90
2022-12-23T03:18:51.658Z,31.07
2022-12-23T03:21:27.282Z,30.90
2022-12-23T03:24:14.074Z,31.63
2022-12-23T03:26:49.914Z,34.10
2022-12-23T03:29:45.193Z,33.10
2022-12-23T03:32:13.455Z,33.63
2022-12-23T03:34:44.321Z,33.23
2022-12-23T03:37:12.381Z,33.40
2022-12-23T03:39:53.912Z,39.30
2022-12-23T03:42:28.960Z,52.50
2022-12-23T03:45:36.356Z,35.63
2022-12-23T03:47:51.171Z,34.70
2022-12-23T03:50:20.088Z,33.40
2022-12-23T03:52:59.962Z,34.97
2022-12-23T03:55:33.152Z,33.10
2022-12-23T03:58:20.330Z,39.20
2022-12-23T04:00:52.681Z,41.30
2022-12-23T04:03:24.769Z,34.90
2022-12-23T04:05:55.577Z,37.00
2022-12-23T04:08:22.468Z,62.87
2022-12-23T04:10:49.945Z,76.70
2022-12-23T04:13:16.936Z,62.33
2022-12-23T04:15:44.360Z,52.70
2022-12-23T04:18:11.594Z,45.50
2022-12-23T04:20:38.898Z,64.57
2022-12-23T04:23:05.866Z,56.87
2022-12-23T04:25:33.058Z,50.77
2022-12-23T04:28:00.043Z,55.50
2022-12-23T04:30:33.670Z,48.23
2022-12-23T04:33:01.587Z,41.67
2022-12-23T04:35:29.308Z,66.70
2022-12-23T04:37:56.279Z,50.10
2022-12-23T04:40:23.853Z,41.03
2022-12-23T04:42:50.868Z,40.00
2022-12-23T04:45:18.118Z,42.03
2022-12-23T04:47:45.167Z,50.93
2022-12-23T04:50:16.545Z,44.40
2022-12-23T04:52:43.894Z,40.33
2022-12-23T04:55:11.316Z,43.20
2022-12-23T04:57:38.354Z,43.63
2022-12-23T05:00:06.430Z,42.03
2022-12-23T05:02:33.524Z,44.23
2022-12-23T05:05:00.942Z,52.40
2022-12-23T05:07:27.837Z,40.57
2022-12-23T05:09:55.017Z,42.27
2022-12-23T05:12:21.923Z,40.57
2022-12-23T05:14:49.204Z,41.10
2022-12-23T05:17:16.120Z,39.37
2022-12-23T05:19:43.361Z,41.03
2022-12-23T05:22:10.316Z,40.57
2022-12-23T05:24:37.523Z,40.30
2022-12-23T05:27:04.517Z,41.70
2022-12-23T05:29:31.779Z,40.43
2022-12-23T05:31:58.957Z,60.17
2022-12-23T05:34:26.191Z,41.83
2022-12-23T05:36:53.131Z,40.87
2022-12-23T05:39:20.510Z,40.10
2022-12-23T05:41:47.492Z,40.27
2022-12-23T05:44:14.716Z,43.07
2022-12-23T05:46:41.735Z,39.40
2022-12-23T05:49:09.216Z,42.03
2022-12-23T05:51:36.145Z,40.57
2022-12-23T05:54:03.351Z,40.40
2022-12-23T05:56:30.318Z,41.17
2022-12-23T05:58:57.921Z,48.47
2022-12-23T06:01:24.837Z,43.50
2022-12-23T06:03:52.174Z,42.17
2022-12-23T06:06:19.238Z,41.47
2022-12-23T06:08:46.731Z,41.27
2022-12-23T06:11:13.828Z,40.33
2022-12-23T06:13:41.151Z,41.97
2022-12-23T06:16:08.174Z,40.27
2022-12-23T06:18:35.526Z,41.53
2022-12-23T06:21:02.669Z,41.53
2022-12-23T06:23:29.930Z,45.63
2022-12-23T06:26:01.057Z,42.00
2022-12-23T06:28:29.391Z,40.23
2022-12-23T06:30:57.316Z,43.03
2022-12-23T06:33:25.063Z,40.73
2022-12-23T06:35:52.127Z,39.40
2022-12-23T06:38:19.481Z,38.97
2022-12-23T06:40:46.421Z,41.27
2022-12-23T06:43:13.843Z,41.67
2022-12-23T06:45:41.344Z,42.57
2022-12-23T06:48:08.864Z,47.87
2022-12-23T06:50:35.850Z,51.80
2022-12-23T06:53:03.174Z,45.03
2022-12-23T06:55:30.293Z,44.77
2022-12-23T06:57:57.495Z,44.90
2022-12-23T07:00:24.581Z,43.07
2022-12-23T07:02:54.153Z,44.33
2022-12-23T07:05:21.653Z,44.63
2022-12-23T07:07:48.897Z,46.20
2022-12-23T07:10:15.998Z,46.43
2022-12-23T07:12:49.019Z,46.07
2022-12-23T07:15:17.704Z,47.87
2022-12-23T07:17:44.973Z,52.50
2022-12-23T07:20:13.566Z,42.37
2022-12-23T07:22:40.899Z,48.03
2022-12-23T07:25:08.585Z,46.33
2022-12-23T07:27:36.129Z,43.03
2022-12-23T07:30:03.678Z,42.53
2022-12-23T07:32:30.933Z,42.00
2022-12-23T07:34:57.912Z,45.03
2022-12-23T07:37:25.209Z,42.47
2022-12-23T07:39:52.147Z,43.97
2022-12-23T07:45:07.525Z,52.37
2022-12-23T07:47:35.655Z,41.87
2022-12-23T07:50:02.710Z,44.67
2022-12-23T07:52:30.110Z,42.17
2022-12-23T07:54:57.046Z,42.17
2022-12-23T07:57:24.463Z,40.50
2022-12-23T07:59:51.384Z,41.17
2022-12-23T08:02:18.866Z,40.17
2022-12-23T08:04:46.801Z,40.13
2022-12-23T08:07:14.056Z,40.67
2022-12-23T08:09:41.019Z,40.77
2022-12-23T08:12:08.246Z,40.43
2022-12-23T08:14:35.280Z,39.87
2022-12-23T08:17:02.844Z,40.67
2022-12-23T08:19:29.897Z,55.30
2022-12-23T08:21:57.697Z,59.10
2022-12-23T08:24:24.620Z,41.83
2022-12-23T08:26:51.932Z,51.17
2022-12-23T08:29:18.843Z,53.87
2022-12-23T08:31:46.206Z,43.83
2022-12-23T08:34:14.424Z,41.83
2022-12-23T08:36:41.746Z,68.33
2022-12-23T08:39:11.109Z,52.53
2022-12-23T08:41:41.048Z,78.27
2022-12-23T08:44:08.116Z,72.23
2022-12-23T08:46:35.984Z,89.03
2022-12-23T08:49:03.536Z,80.57
2022-12-23T08:51:31.064Z,88.20
2022-12-23T08:54:01.347Z,69.87
2022-12-23T08:56:34.380Z,72.67
2022-12-23T08:59:01.824Z,63.40
2022-12-23T09:01:31.213Z,49.17
2022-12-23T09:03:58.511Z,47.37
2022-12-23T09:06:30.475Z,52.70
2022-12-23T09:08:58.569Z,47.03
2022-12-23T09:11:27.773Z,45.03
2022-12-23T09:13:54.951Z,43.10
2022-12-23T09:16:22.333Z,45.63
2022-12-23T09:18:49.456Z,48.70
2022-12-23T09:21:19.534Z,46.50
2022-12-23T09:23:46.725Z,48.93
2022-12-23T09:26:24.929Z,44.10
2022-12-23T09:28:52.339Z,49.47
2022-12-23T09:31:21.073Z,62.30
2022-12-23T09:33:49.806Z,72.47
2022-12-23T09:36:17.371Z,56.20
2022-12-23T09:38:44.673Z,76.47
2022-12-23T09:41:40.098Z,78.60
2022-12-23T09:44:34.675Z,64.50
2022-12-23T09:47:05.262Z,70.63
2022-12-23T09:49:33.356Z,68.00
2022-12-23T09:52:03.454Z,56.10
2022-12-23T09:54:36.506Z,51.03
2022-12-23T09:57:24.253Z,46.37
2022-12-23T10:00:03.218Z,44.60
2022-12-23T10:02:54.228Z,43.53
2022-12-23T10:05:42.924Z,44.40
2022-12-23T10:08:34.899Z,42.97
2022-12-23T10:11:06.660Z,39.93
2022-12-23T10:13:39.483Z,41.43
2022-12-23T10:16:16.004Z,45.97
2022-12-23T10:19:10.825Z,60.97
2022-12-23T10:21:46.724Z,44.97
2022-12-23T10:24:24.948Z,43.50
2022-12-23T10:26:51.929Z,41.50
2022-12-23T10:29:25.166Z,46.63
2022-12-23T10:32:01.402Z,40.30
2022-12-23T10:34:47.379Z,36.20
2022-12-23T10:37:35.208Z,34.37
2022-12-23T10:40:11.938Z,37.07
2022-12-23T10:42:57.378Z,35.10
2022-12-23T10:45:46.426Z,38.40
2022-12-23T10:48:25.631Z,39.83
2022-12-23T10:51:03.909Z,41.13
2022-12-23T10:53:52.602Z,44.23
2022-12-23T10:56:20.675Z,38.13
2022-12-23T10:58:53.069Z,37.67
2022-12-23T11:01:26.604Z,37.03
2022-12-23T11:04:17.652Z,39.07
2022-12-23T11:06:48.349Z,47.03
2022-12-23T11:09:22.089Z,37.97
2022-12-23T11:11:57.925Z,39.03
2022-12-23T11:14:34.238Z,37.57
2022-12-23T11:17:01.907Z,64.43
2022-12-23T11:19:29.027Z,49.17
2022-12-23T11:22:00.490Z,47.53
2022-12-23T11:24:35.306Z,49.33
2022-12-23T11:27:06.279Z,39.17
2022-12-23T11:29:39.505Z,41.07
2022-12-23T11:32:19.934Z,44.23
2022-12-23T11:34:47.537Z,45.73
2022-12-23T11:37:36.445Z,39.83
2022-12-23T11:40:06.312Z,46.03
2022-12-23T11:42:34.436Z,52.77
2022-12-23T11:45:01.558Z,39.70
2022-12-23T11:47:39.022Z,98.27
2022-12-23T11:50:27.787Z,60.77
2022-12-23T11:53:00.901Z,41.60
2022-12-23T11:55:32.732Z,42.50
2022-12-23T11:58:01.564Z,49.60
2022-12-23T12:00:55.998Z,44.50
2022-12-23T12:03:28.145Z,42.30
2022-12-23T12:05:59.188Z,45.07
2022-12-23T12:08:33.094Z,42.30
2022-12-23T12:11:05.348Z,47.83
2022-12-23T12:13:38.151Z,52.07
2022-12-23T12:16:17.215Z,49.23
2022-12-23T12:18:50.484Z,43.87
2022-12-23T12:21:23.974Z,46.70
2022-12-23T12:24:14.765Z,43.73
2022-12-23T12:26:41.386Z,41.60
2022-12-23T12:29:29.311Z,40.50
2022-12-23T12:31:58.981Z,38.80
2022-12-23T12:34:59.120Z,41.80
2022-12-23T12:37:43.234Z,39.47
2022-12-23T12:40:34.449Z,39.40
2022-12-23T12:43:19.608Z,38.33
2022-12-23T12:46:06.671Z,41.13
2022-12-23T12:48:45.300Z,61.47
2022-12-23T12:51:38.916Z,45.87
2022-12-23T12:54:14.738Z,40.07
2022-12-23T12:56:44.498Z,39.07
2022-12-23T12:59:20.586Z,41.00
2022-12-23T13:02:18.714Z,38.83
2022-12-23T13:05:06.904Z,37.87
2022-12-23T13:07:52.583Z,35.57
2022-12-23T13:10:43.895Z,57.73
2022-12-23T13:13:44.950Z,37.13
2022-12-23T13:16:17.763Z,35.47
2022-12-23T13:18:57.344Z,49.97
2022-12-23T13:21:24.327Z,38.10
2022-12-23T13:24:16.191Z,36.90
2022-12-23T13:26:48.934Z,35.17
2022-12-23T13:29:37.973Z,33.93
2022-12-23T13:32:27.563Z,32.47
2022-12-23T13:35:03.212Z,32.03
2022-12-23T13:37:45.412Z,33.10
2022-12-23T13:40:27.430Z,35.07
2022-12-23T13:43:03.110Z,33.87
2022-12-23T13:45:34.088Z,47.00
2022-12-23T13:48:05.379Z,38.40
2022-12-23T13:50:45.431Z,34.33
2022-12-23T13:53:23.983Z,32.80
2022-12-23T13:56:11.858Z,33.47
2022-12-23T13:58:39.903Z,30.90
2022-12-23T14:01:10.265Z,32.50
2022-12-23T14:03:39.241Z,30.50
2022-12-23T14:06:21.421Z,30.90
2022-12-23T14:08:48.862Z,36.57
2022-12-23T14:11:23.907Z,32.43
2022-12-23T14:13:50.844Z,31.80
2022-12-23T14:16:21.397Z,33.07
2022-12-23T14:19:01.671Z,31.43
2022-12-23T14:22:07.882Z,32.83
2022-12-23T14:25:08.722Z,30.07
2022-12-23T14:27:56.247Z,28.50
2022-12-23T14:30:35.968Z,30.17
2022-12-23T14:33:13.987Z,30.83
2022-12-23T14:35:42.854Z,30.50
2022-12-23T14:38:16.248Z,33.37
2022-12-23T14:40:43.187Z,34.33
2022-12-23T14:43:22.554Z,31.30
2022-12-23T14:45:54.589Z,29.53
2022-12-23T14:48:33.797Z,54.27
2022-12-23T14:51:13.983Z,35.13
2022-12-23T14:53:57.084Z,31.83
2022-12-23T14:56:39.505Z,32.67
2022-12-23T14:59:12.974Z,31.37
2022-12-23T15:01:41.821Z,126.70
2022-12-23T15:04:23.909Z,73.17
2022-12-23T15:06:54.741Z,46.13
2022-12-23T15:09:36.886Z,47.57
2022-12-23T15:12:14.256Z,38.63
2022-12-23T15:14:50.915Z,38.47
2022-12-23T15:17:35.731Z,34.20
2022-12-23T15:20:21.377Z,36.73
2022-12-23T15:22:49.037Z,51.43
2022-12-23T15:25:22.276Z,46.87
2022-12-23T15:27:49.794Z,38.80
2022-12-23T15:30:18.033Z,35.43
2022-12-23T15:32:47.279Z,33.13
2022-12-23T15:35:35.128Z,41.70
2022-12-23T15:38:02.536Z,40.27
2022-12-23T15:40:33.289Z,33.57
2022-12-23T15:43:01.055Z,33.10
2022-12-23T15:45:38.724Z,34.23
2022-12-23T15:48:07.515Z,36.80
2022-12-23T15:50:41.608Z,34.40
2022-12-23T15:53:09.776Z,32.20
2022-12-23T15:55:40.414Z,35.20
2022-12-23T15:58:07.678Z,32.63
2022-12-23T16:00:49.794Z,32.23
2022-12-23T16:03:27.115Z,31.87
2022-12-23T16:05:54.419Z,31.90
2022-12-23T16:08:29.857Z,32.50
2022-12-23T16:11:00.836Z,32.67
2022-12-23T16:13:27.964Z,32.73
2022-12-23T16:15:55.391Z,31.00
2022-12-23T16:18:32.670Z,33.03
2022-12-23T16:21:04.347Z,31.73
2022-12-23T16:23:33.768Z,31.07
2022-12-23T16:26:01.942Z,30.77
2022-12-23T16:28:38.168Z,28.00
2022-12-23T16:31:07.095Z,29.53
2022-12-23T16:33:38.686Z,28.67
2022-12-23T16:36:21.030Z,30.40
2022-12-23T16:38:49.690Z,28.70
2022-12-23T16:41:17.503Z,41.17
2022-12-23T16:43:51.559Z,34.60
2022-12-23T16:46:21.503Z,35.27
2022-12-23T16:48:53.554Z,33.97
2022-12-23T16:51:23.390Z,30.10
2022-12-23T16:53:52.586Z,30.90
2022-12-23T16:56:21.292Z,31.30
2022-12-23T16:58:48.857Z,31.03
2022-12-23T17:01:28.077Z,30.87
2022-12-23T17:03:56.046Z,39.53
2022-12-23T17:06:24.667Z,54.40
2022-12-23T17:08:53.224Z,34.97
2022-12-23T17:11:34.301Z,32.63
2022-12-23T17:14:04.921Z,29.87
2022-12-23T17:16:34.167Z,35.57
2022-12-23T17:19:01.283Z,31.90
2022-12-23T17:21:35.001Z,74.93
2022-12-23T17:24:33.158Z,58.20
2022-12-23T17:27:00.493Z,33.10
2022-12-23T17:29:28.287Z,35.33
2022-12-23T17:31:55.648Z,33.97
2022-12-23T17:34:24.315Z,33.97
2022-12-23T17:36:52.864Z,34.20
2022-12-23T17:39:21.099Z,78.40
2022-12-23T17:41:48.751Z,85.23
2022-12-23T17:44:17.606Z,43.13
2022-12-23T17:46:46.016Z,35.67
2022-12-23T17:49:13.238Z,45.13
2022-12-23T17:51:40.841Z,35.73
2022-12-23T17:54:20.797Z,36.90
2022-12-23T17:56:48.005Z,34.30
2022-12-23T17:59:15.417Z,32.90
2022-12-23T18:01:42.732Z,36.60
2022-12-23T18:04:09.832Z,40.57
2022-12-23T18:06:37.101Z,36.90
2022-12-23T18:09:04.146Z,34.07
2022-12-23T18:11:37.117Z,91.07
2022-12-23T18:14:04.529Z,52.57
2022-12-23T18:16:31.991Z,94.63
2022-12-23T18:18:58.997Z,139.40
2022-12-23T18:21:27.991Z,76.10
2022-12-23T18:23:57.625Z,52.60
2022-12-23T18:26:25.121Z,38.80
2022-12-23T18:28:54.337Z,36.97
2022-12-23T18:31:24.159Z,38.93
2022-12-23T18:33:51.468Z,37.73
2022-12-23T18:36:27.469Z,48.20
2022-12-23T18:38:54.911Z,61.47
2022-12-23T18:41:22.550Z,41.13
2022-12-23T18:43:50.239Z,39.00
2022-12-23T18:46:20.086Z,39.20
2022-12-23T18:48:47.296Z,39.77
2022-12-23T18:51:19.127Z,42.10
2022-12-23T18:53:46.832Z,37.70
2022-12-23T18:56:15.681Z,38.03
2022-12-23T18:58:43.019Z,36.87
2022-12-23T19:01:14.738Z,40.33
2022-12-23T19:03:42.251Z,42.43
2022-12-23T19:06:12.472Z,56.13
2022-12-23T19:08:40.605Z,81.53
2022-12-23T19:11:26.023Z,69.13
2022-12-23T19:13:53.005Z,62.20
2022-12-23T19:16:21.501Z,43.37
2022-12-23T19:18:48.917Z,47.20
2022-12-23T19:21:17.514Z,47.40
2022-12-23T19:23:44.712Z,40.50
2022-12-23T19:26:13.928Z,55.40
2022-12-23T19:28:41.805Z,53.43
2022-12-23T19:31:14.508Z,43.30
2022-12-23T19:33:43.580Z,44.23
2022-12-23T19:36:14.527Z,42.60
2022-12-23T19:38:41.776Z,42.37
2022-12-23T19:41:09.197Z,43.23
2022-12-23T19:43:37.778Z,44.27
2022-12-23T19:46:07.553Z,43.90
2022-12-23T19:48:35.014Z,46.03
2022-12-23T19:51:10.570Z,44.80
2022-12-23T19:53:38.525Z,48.40
2022-12-23T19:56:14.910Z,54.00
2022-12-23T19:58:43.541Z,52.97
2022-12-23T20:01:24.044Z,71.10
2022-12-23T20:03:52.701Z,89.07
2022-12-23T20:06:29.622Z,51.87
2022-12-23T20:09:00.904Z,52.47
2022-12-23T20:11:32.618Z,52.93
2022-12-23T20:14:00.707Z,55.43
2022-12-23T20:16:29.059Z,52.27
2022-12-23T20:18:56.786Z,54.23
2022-12-23T20:21:24.092Z,60.17
2022-12-23T20:23:51.465Z,54.50
2022-12-23T20:26:19.224Z,53.43
2022-12-23T20:28:46.652Z,55.33
2022-12-23T20:31:20.816Z,56.43
2022-12-23T20:33:49.139Z,89.03
2022-12-23T20:36:18.858Z,73.40
2022-12-23T20:38:46.803Z,57.30
2022-12-23T20:41:19.454Z,55.80
2022-12-23T20:44:02.714Z,63.23
2022-12-23T20:46:34.267Z,56.87
2022-12-23T20:49:01.214Z,53.10
2022-12-23T20:51:28.550Z,57.60
2022-12-23T20:53:59.734Z,57.13
2022-12-23T20:56:27.808Z,59.20
2022-12-23T20:58:55.244Z,60.10
2022-12-23T21:01:26.187Z,57.80
2022-12-23T21:03:53.316Z,59.57
2022-12-23T21:06:21.042Z,57.53
2022-12-23T21:08:48.225Z,54.23
2022-12-23T21:11:16.218Z,56.13
2022-12-23T21:13:43.965Z,55.30
2022-12-23T21:16:12.013Z,56.23
2022-12-23T21:18:44.655Z,58.03
2022-12-23T21:21:12.656Z,56.37
2022-12-23T21:23:41.095Z,75.60
2022-12-23T21:26:19.901Z,65.50
2022-12-23T21:28:47.982Z,59.90
2022-12-23T21:31:17.111Z,55.67
2022-12-23T21:33:46.025Z,52.43
2022-12-23T21:36:20.069Z,52.23
2022-12-23T21:38:48.636Z,53.47
2022-12-23T21:41:20.843Z,57.33
2022-12-23T21:43:48.728Z,52.20
2022-12-23T21:46:18.379Z,53.93
2022-12-23T21:48:45.537Z,55.13
2022-12-23T21:51:22.227Z,53.97
2022-12-23T21:53:51.477Z,53.37
2022-12-23T21:56:26.793Z,53.90
2022-12-23T21:58:58.364Z,56.73
2022-12-23T22:01:26.049Z,54.53
2022-12-23T22:03:53.916Z,54.57
2022-12-23T22:06:24.665Z,54.27
2022-12-23T22:08:52.988Z,53.30
2022-12-23T22:11:23.749Z,54.03
2022-12-23T22:13:51.476Z,53.70
2022-12-23T22:16:21.541Z,57.50
2022-12-23T22:18:49.220Z,54.17
2022-12-23T22:21:19.599Z,57.03
2022-12-23T22:23:47.689Z,52.90
2022-12-23T22:26:22.297Z,53.03
2022-12-23T22:28:52.086Z,50.83
2022-12-23T22:31:44.793Z,51.67
2022-12-23T22:34:15.388Z,53.53
2022-12-23T22:36:42.891Z,51.50
2022-12-23T22:39:17.646Z,53.73
2022-12-23T22:41:47.261Z,55.90
2022-12-23T22:44:15.075Z,52.67
2022-12-23T22:46:42.780Z,52.57
2022-12-23T22:49:13.780Z,52.90
2022-12-23T22:51:41.484Z,51.03
2022-12-23T22:54:09.159Z,51.93
2022-12-23T22:56:36.806Z,52.60
2022-12-23T22:59:04.886Z,53.57
2022-12-23T23:01:35.008Z,53.80
2022-12-23T23:04:03.533Z,52.57
2022-12-23T23:06:37.640Z,58.73
2022-12-23T23:09:09.992Z,54.90
2022-12-23T23:11:37.500Z,55.33
2022-12-23T23:14:04.667Z,55.77
2022-12-23T23:16:32.372Z,55.77
2022-12-23T23:18:59.994Z,55.23
2022-12-23T23:21:27.308Z,57.33
2022-12-23T23:23:55.470Z,55.80
2022-12-23T23:26:26.839Z,55.57
2022-12-23T23:28:54.782Z,58.47
2022-12-23T23:34:09.309Z,58.63
2022-12-23T23:36:36.552Z,56.73
2022-12-23T23:39:03.629Z,58.63
2022-12-23T23:41:30.939Z,58.33
2022-12-23T23:43:57.895Z,58.87
2022-12-23T23:46:25.179Z,58.37
2022-12-23T23:48:52.236Z,58.53
2022-12-23T23:51:19.463Z,57.90
2022-12-23T23:53:46.450Z,64.07
2022-12-23T23:56:13.659Z,62.20
2022-12-23T23:58:40.641Z,62.00
